Time;durP1;ratioP1;P1;durP2;ratioP2;P2;SDS_P1;SDS_P2;PMS_P1;PMS_P2;Temp;Humidity;BMP_temperature;BMP_pressure;BME280_temperature;BME280_humidity;BME280_pressure;Samples;Min_cycle;Max_cycle;Signal;HPM_P1;HPM_P2
2022/01/07 14:10:28;;;;;;;3.90;2.30;;;2.90;71.60;;;;;;5029845;28;20435;-73
2022/01/07 14:13:24;;;;;;;5.80;2.30;;;2.70;72.40;;;;;;5029967;28;20053;-70
2022/01/07 14:15:55;;;;;;;4.88;2.35;;;2.70;72.40;;;;;;5030008;28;20810;-70
2022/01/07 14:18:24;;;;;;;4.63;2.28;;;2.70;72.20;;;;;;5038666;28;20786;-71
2022/01/07 14:20:56;;;;;;;7.60;3.13;;;2.60;73.00;;;;;;5032316;28;20036;-71
2022/01/07 14:23:24;;;;;;;4.25;2.30;;;2.60;73.40;;;;;;5028419;28;20087;-71
2022/01/07 14:26:01;;;;;;;6.05;2.63;;;2.60;73.10;;;;;;5027278;28;21290;-71
2022/01/07 14:28:27;;;;;;;6.50;2.67;;;2.60;73.50;;;;;;5030246;28;20116;-71
2022/01/07 14:30:53;;;;;;;5.47;2.80;;;2.70;73.70;;;;;;5027396;28;20141;-71
2022/01/07 14:33:24;;;;;;;3.30;2.20;;;2.60;73.60;;;;;;5031613;28;20111;-71
2022/01/07 14:35:51;;;;;;;5.40;2.28;;;2.60;73.60;;;;;;5025787;28;20024;-71
2022/01/07 14:38:16;;;;;;;3.60;2.17;;;2.50;73.80;;;;;;5030169;28;20033;-71
2022/01/07 14:40:43;;;;;;;3.80;2.27;;;2.40;74.10;;;;;;5027695;28;20114;-71
2022/01/07 14:43:09;;;;;;;4.95;2.80;;;2.30;74.80;;;;;;5031878;28;20025;-71
2022/01/07 14:45:35;;;;;;;;;;;2.30;75.10;;;;;;5026393;28;20133;-71
2022/01/07 14:48:01;;;;;;;4.72;2.28;;;2.20;73.80;;;;;;5029002;28;19959;-71
2022/01/07 14:50:29;;;;;;;3.17;2.10;;;2.20;73.30;;;;;;5031628;28;20029;-71
2022/01/07 14:52:55;;;;;;;3.17;1.92;;;2.20;73.10;;;;;;5029418;28;20036;-71
2022/01/07 14:55:24;;;;;;;4.53;2.20;;;2.10;68.60;;;;;;5031361;28;20017;-71
2022/01/07 14:57:50;;;;;;;5.28;2.13;;;2.10;67.00;;;;;;5026898;28;20024;-70
2022/01/07 15:00:18;;;;;;;3.88;1.80;;;2.10;67.00;;;;;;5031322;28;20021;-71
2022/01/07 15:02:46;;;;;;;5.95;1.98;;;2.00;64.90;;;;;;5026472;28;20033;-71
2022/01/07 15:05:12;;;;;;;1.52;1.38;;;2.00;64.50;;;;;;5028780;28;20029;-71
2022/01/07 15:07:37;;;;;;;5.73;1.63;;;1.90;61.70;;;;;;5023893;28;20029;-71
2022/01/07 15:10:05;;;;;;;3.97;1.27;;;1.80;60.00;;;;;;5030595;28;20018;-71
2022/01/07 15:12:31;;;;;;;2.80;1.85;;;1.80;59.60;;;;;;5025443;28;20021;-70
2022/01/07 15:14:57;;;;;;;2.27;1.80;;;1.80;60.20;;;;;;5031023;28;20025;-71
2022/01/07 15:17:24;;;;;;;3.38;1.35;;;1.80;60.40;;;;;;5029756;28;20648;-71
2022/01/07 15:19:50;;;;;;;4.88;1.55;;;1.70;59.60;;;;;;5018887;28;20030;-71
2022/01/07 15:22:16;;;;;;;2.60;1.55;;;1.70;59.70;;;;;;5014959;28;20022;-71
2022/01/07 15:24:42;;;;;;;2.33;1.40;;;1.60;59.60;;;;;;5012756;28;20099;-71
2022/01/07 15:27:09;;;;;;;3.87;1.70;;;1.60;58.90;;;;;;5014658;28;20021;-71
2022/01/07 15:29:36;;;;;;;2.25;1.58;;;1.50;58.20;;;;;;5011721;28;20052;-72
2022/01/07 15:32:03;;;;;;;5.45;2.15;;;1.50;58.90;;;;;;5016087;28;20018;-70
2022/01/07 15:34:28;;;;;;;2.20;1.55;;;1.50;58.60;;;;;;5016534;28;20029;-71
2022/01/07 15:36:54;;;;;;;3.10;1.33;;;1.50;58.50;;;;;;5012102;28;20083;-70
2022/01/07 15:39:21;;;;;;;3.10;1.53;;;1.40;58.40;;;;;;5017167;28;20040;-71
2022/01/07 15:41:49;;;;;;;2.38;1.45;;;1.40;58.50;;;;;;5012407;28;20017;-72
2022/01/07 15:44:17;;;;;;;3.80;1.73;;;1.40;58.50;;;;;;5017285;28;20382;-71
2022/01/07 15:46:44;;;;;;;4.28;2.75;;;1.40;59.00;;;;;;5010042;28;20029;-71
2022/01/07 15:49:09;;;;;;;2.85;1.95;;;1.30;60.20;;;;;;5013855;28;20430;-71
2022/01/07 15:51:35;;;;;;;3.27;2.23;;;1.20;61.70;;;;;;5010025;28;20112;-71
2022/01/07 15:54:02;;;;;;;6.30;2.70;;;1.20;62.90;;;;;;5016076;28;20021;-70
2022/01/07 15:56:29;;;;;;;3.95;2.08;;;1.20;62.60;;;;;;5016725;28;20095;-70
2022/01/07 15:58:57;;;;;;;4.32;1.98;;;1.10;63.40;;;;;;5013988;28;20129;-71
2022/01/07 16:01:23;;;;;;;3.65;1.83;;;1.00;63.70;;;;;;5017492;28;20037;-71
2022/01/07 16:03:49;;;;;;;6.83;2.50;;;1.00;64.30;;;;;;5011379;28;20029;-71
2022/01/07 16:06:15;;;;;;;4.32;2.40;;;1.00;64.40;;;;;;5016296;28;20033;-71
2022/01/07 16:08:41;;;;;;;5.60;2.53;;;1.00;65.00;;;;;;5012605;28;20033;-71
2022/01/07 16:11:07;;;;;;;4.37;2.27;;;0.90;65.80;;;;;;5015677;28;20021;-71
2022/01/07 16:13:33;;;;;;;4.07;2.23;;;0.90;64.00;;;;;;5012951;28;20791;-71
2022/01/07 16:15:59;;;;;;;4.68;2.78;;;0.90;64.90;;;;;;5017772;28;20018;-72
2022/01/07 16:18:25;;;;;;;6.97;3.17;;;0.90;65.50;;;;;;5015639;28;20038;-71
2022/01/07 16:20:51;;;;;;;6.25;2.38;;;0.90;64.80;;;;;;5013024;28;20429;-71
2022/01/07 16:23:18;;;;;;;4.33;1.90;;;0.80;65.60;;;;;;5014534;28;20502;-72
2022/01/07 16:25:45;;;;;;;6.07;2.80;;;0.80;66.30;;;;;;5012726;28;20561;-71
2022/01/07 16:28:14;;;;;;;6.68;3.05;;;0.80;67.20;;;;;;5015580;28;20052;-71
2022/01/07 16:30:41;;;;;;;5.70;2.50;;;0.70;68.10;;;;;;5012168;28;20048;-71
2022/01/07 16:33:11;;;;;;;;;;;0.70;68.50;;;;;;5016980;28;20100;-71
2022/01/07 16:35:38;;;;;;;5.30;2.55;;;0.60;69.00;;;;;;5012937;28;20000;-72
2022/01/07 16:38:04;;;;;;;7.10;2.20;;;0.70;69.30;;;;;;5016116;28;20033;-71
2022/01/07 16:40:29;;;;;;;3.50;2.47;;;0.60;69.30;;;;;;5016676;28;20073;-71
2022/01/07 16:42:56;;;;;;;5.97;2.97;;;0.70;70.00;;;;;;5008023;28;20049;-72
2022/01/07 16:45:23;;;;;;;8.43;3.15;;;0.70;70.60;;;;;;5015143;28;20033;-71
2022/01/07 16:47:48;;;;;;;4.25;2.72;;;0.70;71.20;;;;;;5009733;28;20071;-71
2022/01/07 16:50:14;;;;;;;5.40;2.77;;;0.70;70.50;;;;;;5016711;28;20060;-72
2022/01/07 16:52:40;;;;;;;6.70;3.13;;;0.70;69.90;;;;;;5012420;28;20053;-72
2022/01/07 16:55:07;;;;;;;8.03;3.57;;;0.70;70.40;;;;;;5014836;28;20052;-71
2022/01/07 16:57:34;;;;;;;8.30;4.35;;;0.70;71.00;;;;;;5012027;28;20451;-71
2022/01/07 17:00:00;;;;;;;6.72;3.42;;;0.70;70.90;;;;;;5026927;28;20375;-71
2022/01/07 17:02:26;;;;;;;6.85;2.83;;;0.60;71.70;;;;;;5015804;28;20029;-71
2022/01/07 17:04:53;;;;;;;7.10;3.30;;;0.50;72.70;;;;;;5011740;28;20700;-71
2022/01/07 17:07:20;;;;;;;8.15;4.00;;;0.50;73.40;;;;;;5015589;28;20021;-71
2022/01/07 17:09:48;;;;;;;5.90;3.17;;;0.40;73.70;;;;;;5010983;28;20128;-72
2022/01/07 17:12:13;;;;;;;7.10;3.33;;;0.40;74.50;;;;;;5016187;28;20029;-72
2022/01/07 17:14:39;;;;;;;6.33;3.17;;;0.30;75.40;;;;;;5011771;28;20386;-71
2022/01/07 17:17:10;;;;;;;8.03;3.47;;;0.30;75.90;;;;;;5015394;28;20100;-71
2022/01/07 17:19:36;;;;;;;5.53;2.95;;;0.30;76.60;;;;;;5010566;28;20025;-71
2022/01/07 17:22:02;;;;;;;7.37;3.67;;;0.30;77.70;;;;;;5014912;28;20075;-71
2022/01/07 17:24:31;;;;;;;8.77;3.55;;;0.30;77.10;;;;;;5013449;28;20024;-71
2022/01/07 17:26:58;;;;;;;7.30;3.55;;;0.30;77.70;;;;;;5012681;28;20018;-71
2022/01/07 17:29:24;;;;;;;6.47;2.92;;;0.30;77.80;;;;;;5017291;28;20021;-72
2022/01/07 17:31:50;;;;;;;7.07;3.33;;;0.40;87.20;;;;;;5012264;28;20044;-71
2022/01/07 17:34:17;;;;;;;5.72;3.35;;;0.50;80.40;;;;;;5015314;28;20037;-71
2022/01/07 17:36:42;;;;;;;9.38;3.67;;;0.40;79.70;;;;;;5009247;28;21037;-71
2022/01/07 17:39:10;;;;;;;7.10;3.40;;;0.40;80.10;;;;;;5013793;28;20128;-72
2022/01/07 17:41:38;;;;;;;6.57;3.15;;;0.40;80.30;;;;;;5010084;28;20033;-71
2022/01/07 17:44:04;;;;;;;7.25;3.35;;;0.30;81.40;;;;;;5013970;28;20029;-71
2022/01/07 17:46:30;;;;;;;6.32;3.17;;;0.20;81.90;;;;;;5011336;28;20025;-71
2022/01/07 17:48:55;;;;;;;6.33;3.00;;;0.20;82.40;;;;;;5011604;28;20033;-71
2022/01/07 17:51:26;;;;;;;7.53;3.77;;;0.20;83.30;;;;;;5014736;28;20633;-73
2022/01/07 17:53:54;;;;;;;7.93;3.67;;;0.10;86.20;;;;;;5011237;28;20463;-73
2022/01/07 17:56:20;;;;;;;5.72;3.28;;;0.20;86.50;;;;;;5015843;28;20018;-71
2022/01/07 17:58:45;;;;;;;6.97;3.37;;;0.30;85.90;;;;;;5011243;28;20029;-71
2022/01/07 18:01:11;;;;;;;9.10;2.93;;;0.30;84.80;;;;;;5015298;28;20029;-71
2022/01/07 18:03:39;;;;;;;6.27;3.20;;;0.30;85.30;;;;;;5010726;28;20097;-71
2022/01/07 18:06:10;;;;;;;8.02;4.05;;;0.20;85.70;;;;;;5014263;28;20375;-72
2022/01/07 18:08:36;;;;;;;8.48;4.15;;;0.20;85.90;;;;;;5007376;28;20445;-71
2022/01/07 18:11:02;;;;;;;10.02;4.65;;;0.10;86.10;;;;;;5013213;28;20017;-71
2022/01/07 18:13:29;;;;;;;5.93;3.17;;;0.10;87.10;;;;;;5014526;28;20501;-71
2022/01/07 18:15:54;;;;;;;7.47;3.70;;;0.00;87.60;;;;;;5011200;28;20144;-71
2022/01/07 18:18:21;;;;;;;8.50;3.87;;;0.00;88.30;;;;;;5014292;28;20780;-71
2022/01/07 18:20:47;;;;;;;7.90;4.07;;;-0.10;88.80;;;;;;5014816;28;20032;-71
2022/01/07 18:23:12;;;;;;;8.27;3.50;;;-0.10;89.10;;;;;;5011041;28;20025;-71
2022/01/07 18:25:42;;;;;;;8.80;4.40;;;0.00;89.30;;;;;;5013211;28;20029;-71
2022/01/07 18:28:09;;;;;;;13.48;3.58;;;0.00;89.60;;;;;;5009470;28;20087;-71
2022/01/07 18:30:37;;;;;;;6.43;3.45;;;-0.10;90.10;;;;;;5013417;28;20029;-71
2022/01/07 18:33:04;;;;;;;4.80;2.90;;;-0.10;90.50;;;;;;5008558;28;20450;-71
2022/01/07 18:35:30;;;;;;;;;;;-0.10;90.80;;;;;;5015590;28;20458;-71
2022/01/07 18:37:57;;;;;;;5.97;3.47;;;-0.10;91.10;;;;;;5010391;28;19912;-73
2022/01/07 18:40:24;;;;;;;7.68;3.78;;;-0.10;92.40;;;;;;5014280;28;20364;-73
2022/01/07 18:42:52;;;;;;;9.05;3.53;;;-0.10;91.60;;;;;;5011528;28;20025;-73
2022/01/07 18:45:21;;;;;;;6.85;3.95;;;0.00;92.20;;;;;;5011754;28;20035;-73
2022/01/07 18:47:47;;;;;;;10.85;4.20;;;0.00;91.50;;;;;;5013499;28;20033;-71
2022/01/07 18:50:14;;;;;;;7.60;4.28;;;0.10;91.30;;;;;;5010725;28;20712;-71
2022/01/07 18:52:41;;;;;;;8.32;4.53;;;-0.10;91.30;;;;;;5013766;28;20034;-71
2022/01/07 18:55:07;;;;;;;9.38;3.97;;;-0.10;91.70;;;;;;5010322;28;20562;-71
2022/01/07 18:57:33;;;;;;;9.30;4.50;;;-0.20;92.00;;;;;;5016686;28;20022;-71
2022/01/07 18:59:59;;;;;;;7.73;3.73;;;-0.20;92.60;;;;;;5014694;28;20088;-71
2022/01/07 19:02:27;;;;;;;8.90;4.00;;;-0.30;92.50;;;;;;5017341;28;20497;-71
2022/01/07 19:04:53;;;;;;;9.75;4.40;;;-0.30;92.70;;;;;;5014029;28;20132;-72
2022/01/07 19:07:20;;;;;;;11.80;4.00;;;-0.30;92.80;;;;;;5015165;28;20128;-71
2022/01/07 19:09:46;;;;;;;7.57;4.15;;;-0.30;92.80;;;;;;5017016;28;20025;-71
2022/01/07 19:12:16;;;;;;;8.33;4.47;;;-0.30;93.10;;;;;;5011928;28;20034;-71
2022/01/07 19:14:42;;;;;;;8.10;4.18;;;-0.40;93.10;;;;;;5016398;28;20028;-71
2022/01/07 19:17:08;;;;;;;7.17;4.23;;;-0.40;93.50;;;;;;5010409;28;20045;-71
2022/01/07 19:19:34;;;;;;;9.83;4.10;;;-0.40;93.70;;;;;;5014632;28;20629;-71
2022/01/07 19:22:00;;;;;;;9.70;4.60;;;-0.40;93.60;;;;;;5011861;28;20029;-71
2022/01/07 19:24:27;;;;;;;8.32;4.53;;;-0.40;93.70;;;;;;5017697;28;20028;-71
2022/01/07 19:26:54;;;;;;;8.13;4.55;;;-0.40;93.70;;;;;;5013793;28;20127;-71
2022/01/07 19:29:19;;;;;;;8.10;4.63;;;-0.50;93.90;;;;;;5016305;28;20406;-71
2022/01/07 19:31:45;;;;;;;6.33;3.67;;;-0.50;94.10;;;;;;5017329;28;20063;-71
2022/01/07 19:34:12;;;;;;;10.80;4.57;;;-0.60;94.30;;;;;;5013553;28;20116;-72
2022/01/07 19:36:37;;;;;;;9.43;4.53;;;-0.60;94.30;;;;;;5016398;28;20021;-71
2022/01/07 19:39:05;;;;;;;7.27;4.03;;;-0.60;94.40;;;;;;5011797;28;20037;-71
2022/01/07 19:41:31;;;;;;;7.63;4.40;;;-0.70;94.70;;;;;;5014811;28;20049;-72
2022/01/07 19:43:58;;;;;;;7.53;4.30;;;-0.70;94.90;;;;;;5013392;28;20490;-71
2022/01/07 19:46:25;;;;;;;8.80;4.30;;;-0.70;95.00;;;;;;5015627;28;20064;-71
2022/01/07 19:48:50;;;;;;;8.23;4.50;;;-0.70;95.10;;;;;;5015266;28;20083;-71
2022/01/07 19:51:16;;;;;;;7.17;4.80;;;-0.70;95.10;;;;;;5014038;28;20494;-71
2022/01/07 19:53:43;;;;;;;8.80;4.40;;;-0.70;95.10;;;;;;5017559;28;20103;-71
2022/01/07 19:56:09;;;;;;;10.90;4.70;;;-0.70;95.20;;;;;;5011235;28;20013;-71
2022/01/07 19:58:35;;;;;;;9.23;4.20;;;-0.60;95.20;;;;;;5017336;28;20061;-71
2022/01/07 20:01:01;;;;;;;7.83;4.43;;;-0.70;95.00;;;;;;5012847;28;20049;-71
2022/01/07 20:03:30;;;;;;;10.17;4.77;;;-0.70;95.30;;;;;;5016244;28;20095;-71
2022/01/07 20:05:59;;;;;;;9.57;4.20;;;-0.80;95.30;;;;;;5013553;28;20380;-71
2022/01/07 20:08:26;;;;;;;10.98;4.68;;;-0.80;95.30;;;;;;5013095;28;20043;-71
2022/01/07 20:10:53;;;;;;;11.48;4.93;;;-0.90;95.70;;;;;;5012317;28;20753;-71
2022/01/07 20:13:21;;;;;;;12.20;4.80;;;-0.90;96.00;;;;;;5014776;28;20022;-71
2022/01/07 20:15:50;;;;;;;9.13;5.47;;;-0.90;96.00;;;;;;5014332;28;20032;-71
2022/01/07 20:18:16;;;;;;;12.10;4.63;;;-0.90;96.00;;;;;;5010856;28;20073;-71
2022/01/07 20:20:43;;;;;;;12.27;4.73;;;-0.90;96.10;;;;;;5014841;28;20033;-71
2022/01/07 20:23:09;;;;;;;10.77;4.82;;;-0.90;96.00;;;;;;5010555;28;20105;-71
2022/01/07 20:25:35;;;;;;;9.23;4.57;;;-0.90;96.20;;;;;;5016500;28;20021;-70
2022/01/07 20:28:01;;;;;;;8.90;4.27;;;-0.90;96.20;;;;;;5009617;28;20076;-71
2022/01/07 20:30:27;;;;;;;9.93;4.97;;;-0.90;96.30;;;;;;5016752;28;20025;-71
2022/01/07 20:32:53;;;;;;;10.88;4.88;;;-0.90;96.10;;;;;;5010677;28;20017;-71
2022/01/07 20:35:19;;;;;;;10.27;4.83;;;-0.90;96.20;;;;;;5016141;28;20036;-71
2022/01/07 20:37:48;;;;;;;11.13;4.93;;;-0.90;96.30;;;;;;5013421;28;20156;-71
2022/01/07 20:40:19;;;;;;;8.95;4.50;;;-0.90;96.30;;;;;;5011673;28;20009;-73
2022/01/07 20:42:46;;;;;;;11.27;4.93;;;-1.00;96.30;;;;;;5014855;28;20029;-74
2022/01/07 20:45:12;;;;;;;11.88;5.10;;;-1.00;96.50;;;;;;5008192;28;20050;-73
2022/01/07 20:47:38;;;;;;;9.32;4.40;;;-1.00;96.80;;;;;;5013340;28;20075;-73
2022/01/07 20:50:05;;;;;;;10.33;4.87;;;-1.00;96.50;;;;;;5010272;28;20051;-74
2022/01/07 20:52:31;;;;;;;11.07;5.18;;;-1.00;96.80;;;;;;5013234;28;20045;-74
2022/01/07 20:54:57;;;;;;;7.47;3.90;;;-1.00;96.90;;;;;;5010014;28;20751;-75
2022/01/07 20:57:23;;;;;;;8.30;4.30;;;-1.00;96.90;;;;;;5015091;28;20025;-74
2022/01/07 20:59:49;;;;;;;9.43;4.57;;;-1.00;97.10;;;;;;5016878;28;20776;-73
2022/01/07 21:02:15;;;;;;;8.13;4.27;;;-1.00;97.20;;;;;;5011766;28;20043;-73
2022/01/07 21:04:40;;;;;;;10.20;4.33;;;-1.10;97.10;;;;;;5015874;28;20829;-74
2022/01/07 21:07:06;;;;;;;9.13;4.20;;;-1.10;97.10;;;;;;5011995;28;20029;-74
2022/01/07 21:09:32;;;;;;;9.13;4.47;;;-1.10;97.10;;;;;;5014834;28;20025;-73
2022/01/07 21:11:59;;;;;;;7.83;4.50;;;-1.10;97.00;;;;;;5011463;28;20667;-74
2022/01/07 21:14:25;;;;;;;7.10;4.53;;;-1.10;97.10;;;;;;5016412;28;20551;-74
2022/01/07 21:16:52;;;;;;;9.25;4.50;;;-1.20;97.00;;;;;;5014210;28;20041;-74
2022/01/07 21:19:18;;;;;;;;;;;-1.20;97.00;;;;;;5013039;28;20030;-74
2022/01/07 21:21:44;;;;;;;13.13;4.72;;;-1.20;97.10;;;;;;5015687;28;19913;-74
2022/01/07 21:24:11;;;;;;;7.77;4.40;;;-1.20;97.20;;;;;;5011875;28;20104;-74
2022/01/07 21:26:37;;;;;;;11.98;5.28;;;-1.30;97.50;;;;;;5013703;28;20053;-74
2022/01/07 21:29:04;;;;;;;10.57;5.15;;;-1.30;97.60;;;;;;5010097;28;20459;-74
2022/01/07 21:31:30;;;;;;;8.32;5.03;;;-1.30;97.90;;;;;;5012172;28;20025;-73
2022/01/07 21:33:56;;;;;;;12.53;5.10;;;-1.40;98.00;;;;;;5010234;28;20029;-74
2022/01/07 21:36:22;;;;;;;11.47;5.30;;;-1.40;98.10;;;;;;5014644;28;20029;-73
2022/01/07 21:38:48;;;;;;;;;;;-1.40;98.10;;;;;;5014722;28;20510;-75
2022/01/07 21:41:16;;;;;;;12.48;5.05;;;-1.40;97.90;;;;;;5009597;28;19941;-74
2022/01/07 21:43:43;;;;;;;7.22;4.20;;;-1.40;98.10;;;;;;5012637;28;20061;-74
2022/01/07 21:46:10;;;;;;;9.57;4.25;;;-1.40;98.10;;;;;;5008123;28;20095;-74
2022/01/07 21:48:35;;;;;;;11.27;5.30;;;-1.50;98.30;;;;;;5013734;28;20061;-73
2022/01/07 21:51:03;;;;;;;11.77;5.43;;;-1.50;98.30;;;;;;5009438;28;20048;-73
2022/01/07 21:53:29;;;;;;;9.88;4.47;;;-1.50;98.20;;;;;;5014019;28;20051;-74
2022/01/07 21:55:56;;;;;;;9.43;4.50;;;-1.50;98.20;;;;;;5011198;28;20030;-73
2022/01/07 21:58:22;;;;;;;;;;;-1.60;98.20;;;;;;5012495;28;20032;-73
2022/01/07 22:00:51;;;;;;;8.77;4.80;;;-1.60;98.20;;;;;;5014186;28;19913;-73
2022/01/07 22:03:18;;;;;;;10.27;4.93;;;-1.60;98.30;;;;;;5010758;28;20032;-73
2022/01/07 22:05:44;;;;;;;11.10;5.63;;;-1.60;98.30;;;;;;5015881;28;20041;-73
2022/01/07 22:08:10;;;;;;;10.10;5.03;;;-1.60;98.30;;;;;;5007979;28;20138;-74
2022/01/07 22:10:36;;;;;;;7.47;4.23;;;-1.70;98.40;;;;;;5014775;28;20443;-73
2022/01/07 22:13:03;;;;;;;9.93;4.73;;;-1.70;98.50;;;;;;5010887;28;20030;-74
2022/01/07 22:15:28;;;;;;;8.32;4.63;;;-1.70;98.50;;;;;;5015261;28;20264;-74
2022/01/07 22:17:55;;;;;;;9.20;5.43;;;-1.80;98.40;;;;;;5012411;28;20398;-74
2022/01/07 22:20:21;;;;;;;9.13;4.65;;;-1.80;98.40;;;;;;5015357;28;20021;-73
2022/01/07 22:22:47;;;;;;;9.07;4.83;;;-1.80;98.40;;;;;;5012918;28;20026;-73
2022/01/07 22:25:15;;;;;;;10.02;5.10;;;-1.80;98.50;;;;;;5010625;28;20025;-73
2022/01/07 22:27:43;;;;;;;7.95;4.40;;;-1.80;98.60;;;;;;5013804;28;20509;-73
2022/01/07 22:30:11;;;;;;;9.95;4.88;;;-1.80;98.50;;;;;;5012221;28;20037;-73
2022/01/07 22:32:37;;;;;;;9.35;5.25;;;-1.80;98.40;;;;;;5018664;28;20779;-74
2022/01/07 22:35:06;;;;;;;11.82;5.68;;;-1.80;98.40;;;;;;5013203;28;20026;-74
2022/01/07 22:37:32;;;;;;;10.82;5.05;;;-1.80;98.60;;;;;;5016157;28;20116;-74
2022/01/07 22:39:57;;;;;;;10.70;4.88;;;-1.80;98.50;;;;;;5012939;28;20029;-73
2022/01/07 22:42:25;;;;;;;10.50;5.10;;;-1.80;98.60;;;;;;5015697;28;20040;-74
2022/01/07 22:44:51;;;;;;;9.77;4.97;;;-1.80;98.80;;;;;;5016144;28;20830;-73
2022/01/07 22:47:17;;;;;;;8.50;5.07;;;-1.90;98.80;;;;;;5012694;28;20044;-73
2022/01/07 22:49:44;;;;;;;8.43;4.80;;;-1.90;98.70;;;;;;5018138;28;20037;-73
2022/01/07 22:52:10;;;;;;;9.57;4.82;;;-1.90;98.70;;;;;;5017580;28;20013;-73
2022/01/07 22:54:36;;;;;;;7.93;4.57;;;-1.90;98.80;;;;;;5024745;28;20576;-73
2022/01/07 22:57:03;;;;;;;9.82;4.78;;;-1.90;99.00;;;;;;5025524;28;20088;-73
2022/01/07 22:59:29;;;;;;;11.60;5.75;;;-1.90;99.00;;;;;;5026463;28;20104;-73
2022/01/07 23:01:55;;;;;;;10.18;5.18;;;-1.90;99.10;;;;;;5018020;28;20078;-73
2022/01/07 23:04:21;;;;;;;11.27;4.87;;;-2.00;99.10;;;;;;5013798;28;20587;-73
2022/01/07 23:06:47;;;;;;;9.03;5.23;;;-2.00;99.10;;;;;;5015027;28;20041;-73
2022/01/07 23:09:14;;;;;;;9.75;5.22;;;-2.00;99.20;;;;;;5016924;28;20068;-73
2022/01/07 23:11:40;;;;;;;7.75;4.63;;;-2.00;99.30;;;;;;5012356;28;20095;-73
2022/01/07 23:14:06;;;;;;;10.20;5.57;;;-2.00;99.10;;;;;;5017523;28;20470;-73
2022/01/07 23:16:33;;;;;;;9.47;5.20;;;-2.00;99.00;;;;;;5013192;28;20022;-72
2022/01/07 23:19:00;;;;;;;8.05;5.00;;;-2.00;99.20;;;;;;5016487;28;20021;-74
2022/01/07 23:21:26;;;;;;;;;;;-2.00;99.30;;;;;;5014207;28;20796;-74
2022/01/07 23:23:52;;;;;;;10.02;5.18;;;-2.00;99.60;;;;;;5017731;28;19913;-74
2022/01/07 23:26:19;;;;;;;9.80;5.73;;;-2.00;99.60;;;;;;5016745;28;20316;-73
2022/01/07 23:28:45;;;;;;;10.20;5.22;;;-2.00;99.50;;;;;;5014169;28;20025;-70
2022/01/07 23:31:12;;;;;;;11.57;6.20;;;-2.00;99.50;;;;;;5017000;28;20032;-71
2022/01/07 23:33:41;;;;;;;14.27;6.57;;;-0.90;99.70;;;;;;5010671;28;20288;-73
2022/01/07 23:36:10;;;;;;;11.35;5.43;;;-2.10;99.50;;;;;;5018127;28;20009;-73
2022/01/07 23:38:37;;;;;;;10.32;5.88;;;-2.00;99.70;;;;;;5013408;28;20033;-73
2022/01/07 23:41:04;;;;;;;10.48;5.53;;;-2.10;99.60;;;;;;5016466;28;20122;-73
2022/01/07 23:43:30;;;;;;;10.30;5.53;;;-2.10;99.60;;;;;;5014308;28;20057;-74
2022/01/07 23:45:56;;;;;;;9.47;4.77;;;-2.10;99.40;;;;;;5016249;28;20026;-74
2022/01/07 23:48:21;;;;;;;10.37;4.77;;;-2.10;99.20;;;;;;5014541;28;20045;-74
2022/01/07 23:50:48;;;;;;;9.20;5.63;;;-2.10;99.30;;;;;;5017618;28;20022;-74
2022/01/07 23:53:14;;;;;;;7.75;4.82;;;-2.10;99.50;;;;;;5016464;28;20033;-73
2022/01/07 23:55:44;;;;;;;9.60;4.65;;;-2.10;99.50;;;;;;5014582;28;20323;-74
2022/01/07 23:58:11;;;;;;;12.77;5.43;;;-2.20;99.30;;;;;;5019787;28;20138;-73
